createdAt,value
2019-02-21T00:02:03.340Z,96342.00
2019-02-21T00:04:31.617Z,96342.42
2019-02-21T00:06:59.912Z,96340.67
2019-02-21T00:09:28.208Z,96337.23
2019-02-21T00:11:56.491Z,96341.57
2019-02-21T00:14:24.746Z,96345.32
2019-02-21T00:16:53.010Z,96346.16
2019-02-21T00:19:21.270Z,96349.84
2019-02-21T00:21:49.586Z,96345.51
2019-02-21T00:24:17.837Z,96349.73
2019-02-21T00:26:46.091Z,96347.19
2019-02-21T00:29:14.382Z,96348.75
2019-02-21T00:31:42.642Z,96348.21
2019-02-21T00:34:10.921Z,96342.22
2019-02-21T00:36:39.175Z,96345.84
2019-02-21T00:39:07.464Z,96347.88
2019-02-21T00:41:35.715Z,96344.81
2019-02-21T00:44:04.002Z,96333.84
2019-02-21T00:46:32.434Z,96339.33
2019-02-21T00:49:00.723Z,96340.65
2019-02-21T00:51:29.028Z,96337.08
2019-02-21T00:53:57.279Z,96335.94
2019-02-21T00:56:25.532Z,96337.44
2019-02-21T00:58:53.820Z,96334.08
2019-02-21T01:01:22.155Z,96334.84
2019-02-21T01:03:50.697Z,96333.93
2019-02-21T01:06:18.969Z,96339.80
2019-02-21T01:08:48.202Z,96342.81
2019-02-21T01:11:16.490Z,96339.38
2019-02-21T01:13:44.743Z,96340.64
2019-02-21T01:16:13.037Z,96350.77
2019-02-21T01:18:41.373Z,96336.64
2019-02-21T01:21:09.620Z,96331.91
2019-02-21T01:23:37.886Z,96333.48
2019-02-21T01:26:06.188Z,96329.27
2019-02-21T01:28:34.459Z,96337.15
2019-02-21T01:31:02.883Z,96336.31
2019-02-21T01:33:31.148Z,96343.97
2019-02-21T01:35:59.407Z,96346.91
2019-02-21T01:38:27.685Z,96342.16
2019-02-21T01:40:55.938Z,96348.59
2019-02-21T01:43:24.236Z,96345.52
2019-02-21T01:45:52.488Z,96345.52
2019-02-21T01:48:20.751Z,96354.92
2019-02-21T01:50:49.039Z,96357.06
2019-02-21T01:53:17.311Z,96352.11
2019-02-21T01:55:45.573Z,96345.58
2019-02-21T01:58:13.863Z,96352.45
2019-02-21T02:00:42.122Z,96349.25
2019-02-21T02:03:10.437Z,96345.81
2019-02-21T02:05:38.674Z,96357.78
2019-02-21T02:08:06.928Z,96360.59
2019-02-21T02:10:35.203Z,96362.58
2019-02-21T02:13:03.488Z,96372.94
2019-02-21T02:15:31.812Z,96373.27
2019-02-21T02:18:00.104Z,96378.27
2019-02-21T02:20:28.354Z,96380.86
2019-02-21T02:22:56.688Z,96382.48
2019-02-21T02:25:24.984Z,96382.02
2019-02-21T02:27:53.344Z,96387.28
2019-02-21T02:30:21.643Z,96384.14
2019-02-21T02:32:49.892Z,96376.73
2019-02-21T02:35:18.159Z,96374.84
2019-02-21T02:37:46.441Z,96371.04
2019-02-21T02:40:14.710Z,96367.84
2019-02-21T02:42:42.990Z,96374.33
2019-02-21T02:45:11.247Z,96370.53
2019-02-21T02:47:39.502Z,96367.28
2019-02-21T02:50:08.368Z,96366.64
2019-02-21T02:52:36.615Z,96380.13
2019-02-21T02:55:05.644Z,96374.16
2019-02-21T02:57:33.936Z,96375.78
2019-02-21T03:00:02.184Z,96375.73
2019-02-21T03:02:30.455Z,96377.14
2019-02-21T03:04:58.710Z,96366.83
2019-02-21T03:07:26.960Z,96375.17
2019-02-21T03:09:55.244Z,96373.48
2019-02-21T03:12:23.524Z,96375.06
2019-02-21T03:14:51.814Z,96380.61
2019-02-21T03:17:20.070Z,96379.98
2019-02-21T03:19:48.331Z,96381.61
2019-02-21T03:22:16.590Z,96387.58
2019-02-21T03:24:44.861Z,96381.23
2019-02-21T03:27:13.125Z,96380.75
2019-02-21T03:29:41.376Z,96379.91
2019-02-21T03:32:09.673Z,96378.38
2019-02-21T03:34:37.921Z,96379.21
2019-02-21T03:37:06.209Z,96380.42
2019-02-21T03:39:34.462Z,96379.02
2019-02-21T03:42:02.752Z,96382.25
2019-02-21T03:44:31.005Z,96394.03
2019-02-21T03:46:59.291Z,96393.20
2019-02-21T03:49:27.541Z,96390.67
2019-02-21T03:51:55.793Z,96393.64
2019-02-21T03:54:24.082Z,96395.44
2019-02-21T03:56:52.342Z,96397.91
2019-02-21T03:59:20.625Z,96394.91
2019-02-21T04:01:48.859Z,96389.81
2019-02-21T04:04:17.177Z,96395.37
2019-02-21T04:06:45.494Z,96396.64
2019-02-21T04:09:13.746Z,96389.32
2019-02-21T04:11:42.027Z,96385.53
2019-02-21T04:14:10.282Z,96383.44
2019-02-21T04:16:38.569Z,96391.35
2019-02-21T04:19:06.828Z,96392.41
2019-02-21T04:21:35.094Z,96386.53
2019-02-21T04:24:03.352Z,96390.33
2019-02-21T04:26:31.648Z,96389.53
2019-02-21T04:28:59.911Z,96384.50
2019-02-21T04:31:28.160Z,96379.00
2019-02-21T04:33:56.451Z,96367.27
2019-02-21T04:36:24.704Z,96367.27
2019-02-21T04:38:52.993Z,96370.14
2019-02-21T04:41:21.261Z,96367.91
2019-02-21T04:43:49.525Z,96366.30
2019-02-21T04:46:17.809Z,96364.53
2019-02-21T04:48:46.073Z,96363.24
2019-02-21T04:51:14.324Z,96369.92
2019-02-21T04:53:42.605Z,96361.01
2019-02-21T04:56:10.859Z,96370.77
2019-02-21T04:58:39.166Z,96364.89
2019-02-21T05:01:07.404Z,96367.39
2019-02-21T05:03:35.694Z,96363.63
2019-02-21T05:06:03.972Z,96362.83
2019-02-21T05:08:32.245Z,96357.98
2019-02-21T05:11:00.491Z,96362.12
2019-02-21T05:13:28.814Z,96360.02
2019-02-21T05:15:57.118Z,96361.92
2019-02-21T05:18:25.367Z,96359.72
2019-02-21T05:20:53.701Z,96360.08
2019-02-21T05:23:21.997Z,96363.45
2019-02-21T05:25:50.255Z,96358.81
2019-02-21T05:28:22.596Z,96354.90
2019-02-21T05:30:52.526Z,96365.02
2019-02-21T05:33:22.477Z,96365.34
2019-02-21T05:35:52.346Z,96363.95
2019-02-21T05:38:22.267Z,96367.72
2019-02-21T05:40:57.607Z,96374.48
2019-02-21T05:43:37.274Z,96373.27
2019-02-21T05:46:07.363Z,96370.75
2019-02-21T05:48:43.161Z,96372.02
2019-02-21T05:51:16.047Z,96375.39
2019-02-21T05:53:45.991Z,96375.04
2019-02-21T05:59:16.280Z,96372.02
2019-02-21T06:01:57.988Z,96377.51
2019-02-21T06:04:27.878Z,96376.36
2019-02-21T06:06:57.809Z,96379.54
2019-02-21T06:09:27.719Z,96383.01
2019-02-21T06:12:03.478Z,96380.48
2019-02-21T06:14:39.082Z,96385.16
2019-02-21T06:17:09.010Z,96386.01
2019-02-21T06:19:48.179Z,96386.01
2019-02-21T06:22:27.207Z,96389.45
2019-02-21T06:25:03.053Z,96384.48
2019-02-21T06:27:37.996Z,96385.83
2019-02-21T06:30:09.758Z,96384.69
2019-02-21T06:32:40.693Z,96390.66
2019-02-21T06:35:09.271Z,96386.50
2019-02-21T06:37:37.947Z,96392.77
2019-02-21T06:40:06.994Z,96393.68
2019-02-21T06:42:35.277Z,96391.94
2019-02-21T06:45:03.804Z,96393.27
2019-02-21T06:47:32.092Z,96397.20
2019-02-21T06:50:00.381Z,96396.14
2019-02-21T06:52:28.637Z,96400.08
2019-02-21T06:54:56.934Z,96404.45
2019-02-21T06:57:25.185Z,96406.22
2019-02-21T06:59:53.541Z,96408.02
2019-02-21T07:02:21.827Z,96413.66
2019-02-21T07:04:50.083Z,96414.20
2019-02-21T07:07:18.376Z,96412.17
2019-02-21T07:09:46.630Z,96416.19
2019-02-21T07:12:14.957Z,96416.74
2019-02-21T07:14:43.203Z,96415.89
2019-02-21T07:17:11.456Z,96417.16
2019-02-21T07:19:39.735Z,96420.73
2019-02-21T07:22:08.006Z,96417.43
2019-02-21T07:24:38.483Z,96412.91
2019-02-21T07:27:06.903Z,96415.66
2019-02-21T07:29:35.184Z,96412.84
2019-02-21T07:32:03.546Z,96416.28
2019-02-21T07:34:31.825Z,96416.75
2019-02-21T07:37:00.110Z,96425.26
2019-02-21T07:39:35.647Z,96425.67
2019-02-21T07:41:58.415Z,96426.97
2019-02-21T07:44:26.704Z,96425.41
2019-02-21T07:46:54.960Z,96427.59
2019-02-21T07:49:25.659Z,96426.81
2019-02-21T07:51:53.244Z,96429.89
2019-02-21T07:54:21.533Z,96434.23
2019-02-21T07:56:49.789Z,96433.38
2019-02-21T08:09:49.406Z,96425.03
2019-02-21T08:12:17.669Z,96435.53
2019-02-21T08:14:45.969Z,96438.53
2019-02-21T08:17:16.156Z,96432.83
2019-02-21T08:19:44.208Z,96433.50
2019-02-21T08:22:12.502Z,96434.16
2019-02-21T08:24:40.755Z,96426.74
2019-02-21T08:27:09.051Z,96426.98
2019-02-21T08:29:37.313Z,96426.05
2019-02-21T08:32:05.602Z,96429.78
2019-02-21T08:34:35.495Z,96426.42
2019-02-21T08:37:03.777Z,96425.17
2019-02-21T08:39:32.037Z,96428.55
2019-02-21T08:42:00.367Z,96427.16
2019-02-21T08:44:28.986Z,96436.37
2019-02-21T08:46:57.427Z,96438.63
2019-02-21T08:49:25.720Z,96437.83
2019-02-21T08:51:55.050Z,96441.27
2019-02-21T08:54:23.624Z,96437.04
2019-02-21T08:56:51.907Z,96437.09
2019-02-21T08:59:20.166Z,96442.36
2019-02-21T09:01:48.432Z,96442.36
2019-02-21T09:04:26.978Z,96440.94
2019-02-21T09:06:46.734Z,96440.84
2019-02-21T09:09:15.186Z,96442.16
2019-02-21T09:11:43.473Z,96447.56
2019-02-21T09:14:11.734Z,96434.48
2019-02-21T09:16:40.017Z,96435.16
2019-02-21T09:19:08.275Z,96429.33
2019-02-21T09:21:36.554Z,96419.94
2019-02-21T09:24:04.807Z,96423.12
2019-02-21T09:26:34.730Z,96425.44
2019-02-21T09:29:03.120Z,96422.25
2019-02-21T09:31:31.383Z,96425.17
2019-02-21T09:33:59.672Z,96419.98
2019-02-21T09:36:27.948Z,96424.12
2019-02-21T09:38:56.231Z,96419.47
2019-02-21T09:41:24.483Z,96417.30
2019-02-21T09:43:52.769Z,96416.31
2019-02-21T09:46:21.041Z,96417.26
2019-02-21T09:48:49.302Z,96415.89
2019-02-21T09:51:18.385Z,96427.23
2019-02-21T09:53:46.736Z,96420.34
2019-02-21T09:56:14.989Z,96419.98
2019-02-21T09:58:45.729Z,96417.13
2019-02-21T10:01:13.271Z,96418.23
2019-02-21T10:03:43.993Z,96417.86
2019-02-21T10:06:11.534Z,96414.13
2019-02-21T10:08:39.817Z,96406.91
2019-02-21T10:11:08.134Z,96409.76
2019-02-21T10:13:36.490Z,96407.33
2019-02-21T10:16:05.017Z,96411.66
2019-02-21T10:18:33.377Z,96402.48
2019-02-21T10:21:01.632Z,96402.08
2019-02-21T10:23:29.921Z,96397.38
2019-02-21T10:25:58.174Z,96395.37
2019-02-21T10:28:26.504Z,96388.87
2019-02-21T10:30:54.783Z,96383.89
2019-02-21T10:33:25.273Z,96385.77
2019-02-21T10:35:53.041Z,96377.82
2019-02-21T10:38:21.294Z,96367.72
2019-02-21T10:40:49.604Z,96364.86
2019-02-21T10:43:17.859Z,96353.88
2019-02-21T10:45:48.202Z,96356.35
2019-02-21T10:48:16.122Z,96346.14
2019-02-21T10:50:44.377Z,96345.78
2019-02-21T10:53:12.647Z,96351.80
2019-02-21T10:55:40.928Z,96338.58
2019-02-21T10:58:09.197Z,96343.59
2019-02-21T11:00:37.741Z,96336.41
2019-02-21T11:03:05.990Z,96337.08
2019-02-21T11:05:34.289Z,96327.36
2019-02-21T11:08:02.540Z,96330.95
2019-02-21T11:10:31.321Z,96332.37
2019-02-21T11:12:59.588Z,96322.16
2019-02-21T11:15:27.833Z,96325.52
2019-02-21T11:17:56.107Z,96320.47
2019-02-21T11:20:24.353Z,96321.84
2019-02-21T11:22:52.632Z,96318.94
2019-02-21T11:25:20.885Z,96317.28
2019-02-21T11:27:49.187Z,96319.02
2019-02-21T11:30:18.875Z,96307.13
2019-02-21T11:32:47.121Z,96312.67
2019-02-21T11:35:15.395Z,96310.07
2019-02-21T11:37:46.885Z,96310.98
2019-02-21T11:40:17.792Z,96314.34
2019-02-21T11:42:46.121Z,96309.22
2019-02-21T11:45:18.372Z,96305.78
2019-02-21T11:47:46.623Z,96303.73
2019-02-21T11:50:16.516Z,96301.20
2019-02-21T11:52:44.780Z,96302.08
2019-02-21T11:55:18.553Z,96298.70
2019-02-21T11:57:46.819Z,96294.02
2019-02-21T12:00:17.683Z,96293.98
2019-02-21T12:02:45.969Z,96292.25
2019-02-21T12:05:17.380Z,96291.00
2019-02-21T12:07:44.230Z,96285.02
2019-02-21T12:10:12.851Z,96287.59
2019-02-21T12:12:41.129Z,96276.93
2019-02-21T12:15:11.633Z,96276.07
2019-02-21T12:17:42.407Z,96287.11
2019-02-21T12:20:12.802Z,96274.28
2019-02-21T12:22:41.058Z,96275.13
2019-02-21T12:25:11.309Z,96265.38
2019-02-21T12:27:39.573Z,96268.37
2019-02-21T12:30:10.672Z,96271.80
2019-02-21T12:32:38.960Z,96270.11
2019-02-21T12:35:07.862Z,96261.63
2019-02-21T12:37:36.150Z,96265.03
2019-02-21T12:40:07.015Z,96258.20
2019-02-21T12:42:35.273Z,96261.62
2019-02-21T12:45:03.940Z,96261.62
2019-02-21T12:47:32.187Z,96254.38
2019-02-21T12:50:00.473Z,96253.11
2019-02-21T12:52:28.724Z,96255.66
2019-02-21T12:54:57.042Z,96248.42
2019-02-21T12:57:25.279Z,96247.12
2019-02-21T12:59:53.535Z,96249.24
2019-02-21T13:02:21.816Z,96244.50
2019-02-21T13:04:50.108Z,96247.94
2019-02-21T13:07:18.364Z,96244.13
2019-02-21T13:09:46.643Z,96237.30
2019-02-21T13:12:14.931Z,96242.84
2019-02-21T13:14:43.234Z,96238.59
2019-02-21T13:17:11.541Z,96232.16
2019-02-21T13:19:39.800Z,96241.13
2019-02-21T13:22:08.070Z,96237.28
2019-02-21T13:24:36.351Z,96242.36
2019-02-21T13:27:05.773Z,96233.33
2019-02-21T13:29:34.060Z,96234.56
2019-02-21T13:32:02.335Z,96232.48
2019-02-21T13:34:30.566Z,96227.81
2019-02-21T13:36:58.933Z,96222.72
2019-02-21T13:39:27.213Z,96219.28
2019-02-21T13:41:55.463Z,96229.11
2019-02-21T13:44:23.742Z,96216.74
2019-02-21T13:46:51.988Z,96207.33
2019-02-21T13:49:20.277Z,96213.30
2019-02-21T13:51:48.570Z,96213.26
2019-02-21T13:54:16.830Z,96212.39
2019-02-21T13:56:45.125Z,96212.34
2019-02-21T13:59:13.387Z,96208.94
2019-02-21T14:01:41.655Z,96208.88
2019-02-21T14:04:09.940Z,96200.77
2019-02-21T14:06:38.193Z,96191.81
2019-02-21T14:09:06.483Z,96195.69
2019-02-21T14:11:34.796Z,96195.66
2019-02-21T14:14:03.058Z,96194.39
2019-02-21T14:16:31.317Z,96193.97
2019-02-21T14:18:59.612Z,96200.36
2019-02-21T14:21:27.902Z,96192.67
2019-02-21T14:23:56.199Z,96194.34
2019-02-21T14:26:24.460Z,96185.33
2019-02-21T14:28:52.753Z,96190.40
2019-02-21T14:31:21.068Z,96189.18
2019-02-21T14:33:51.815Z,96184.01
2019-02-21T14:36:19.487Z,96185.71
2019-02-21T14:38:47.780Z,96185.23
2019-02-21T14:41:16.079Z,96192.02
2019-02-21T14:43:44.377Z,96181.75
2019-02-21T14:46:12.623Z,96185.11
2019-02-21T14:48:40.886Z,96183.34
2019-02-21T14:51:09.183Z,96179.94
2019-02-21T14:53:37.446Z,96181.21
2019-02-21T14:56:05.730Z,96174.80
2019-02-21T14:58:33.990Z,96170.05
2019-02-21T15:01:02.359Z,96168.32
2019-02-21T15:03:30.654Z,96162.80
2019-02-21T15:05:58.917Z,96167.80
2019-02-21T15:08:27.203Z,96170.19
2019-02-21T15:10:55.456Z,96165.94
2019-02-21T15:13:25.585Z,96171.89
2019-02-21T15:15:53.764Z,96163.38
2019-02-21T15:18:22.025Z,96170.58
2019-02-21T15:20:50.292Z,96156.53
2019-02-21T15:23:18.555Z,96162.02
2019-02-21T15:25:46.845Z,96155.18
2019-02-21T15:28:15.100Z,96155.56
2019-02-21T15:30:43.364Z,96150.38
2019-02-21T15:33:11.680Z,96152.86
2019-02-21T15:35:39.936Z,96147.31
2019-02-21T15:38:19.046Z,96154.51
2019-02-21T15:40:38.289Z,96157.06
2019-02-21T15:43:06.636Z,96153.17
2019-02-21T15:45:34.937Z,96158.19
2019-02-21T15:48:03.222Z,96159.73
2019-02-21T15:50:31.535Z,96164.33
2019-02-21T15:52:59.833Z,96166.02
2019-02-21T15:55:28.077Z,96160.91
2019-02-21T15:58:04.033Z,96166.29
2019-02-21T16:00:26.336Z,96160.69
2019-02-21T16:02:54.629Z,96164.02
2019-02-21T16:05:22.986Z,96154.55
2019-02-21T16:07:51.367Z,96151.45
2019-02-21T16:10:22.920Z,96152.58
2019-02-21T16:12:51.658Z,96148.64
2019-02-21T16:15:20.241Z,96140.61
2019-02-21T16:17:48.536Z,96149.09
2019-02-21T16:20:18.289Z,96146.45
2019-02-21T16:22:46.531Z,96140.42
2019-02-21T16:25:22.927Z,96137.72
2019-02-21T16:27:51.194Z,96143.09
2019-02-21T16:30:21.842Z,96148.49
2019-02-21T16:32:49.552Z,96154.67
2019-02-21T16:35:19.457Z,96160.23
2019-02-21T16:37:47.765Z,96167.09
2019-02-21T16:40:19.938Z,96166.16
2019-02-21T16:42:48.235Z,96176.45
2019-02-21T16:45:21.868Z,96171.59
2019-02-21T16:47:50.145Z,96180.06
2019-02-21T16:50:29.277Z,96179.72
2019-02-21T16:52:48.438Z,96176.29
2019-02-21T16:55:21.380Z,96179.95
2019-02-21T16:57:49.714Z,96183.25
2019-02-21T17:00:22.167Z,96181.90
2019-02-21T17:02:50.564Z,96182.71
2019-02-21T17:05:18.847Z,96176.44
2019-02-21T17:07:47.113Z,96173.98
2019-02-21T17:10:16.306Z,96181.64
2019-02-21T17:12:44.694Z,96181.17
2019-02-21T17:15:16.153Z,96180.75
2019-02-21T17:17:44.440Z,96178.90
2019-02-21T17:20:18.221Z,96183.55
2019-02-21T17:22:46.634Z,96186.86
2019-02-21T17:25:15.592Z,96191.44
2019-02-21T17:27:45.071Z,96186.09
2019-02-21T17:32:48.642Z,96182.66
2019-02-21T17:35:16.895Z,96188.84
2019-02-21T17:37:45.356Z,96186.98
2019-02-21T17:40:20.895Z,96191.91
2019-02-21T17:42:49.326Z,96187.12
2019-02-21T17:45:17.691Z,96193.00
2019-02-21T17:47:46.015Z,96201.22
2019-02-21T17:50:16.548Z,96198.53
2019-02-21T17:52:46.571Z,96197.44
2019-02-21T17:55:15.664Z,96202.13
2019-02-21T17:57:44.108Z,96200.48
2019-02-21T18:00:22.995Z,96202.55
2019-02-21T18:02:51.471Z,96204.59
2019-02-21T18:05:19.876Z,96201.70
2019-02-21T18:07:48.279Z,96201.20
2019-02-21T18:10:17.791Z,96190.95
2019-02-21T18:12:46.143Z,96187.66
2019-02-21T18:15:15.453Z,96194.30
2019-02-21T18:17:43.750Z,96191.30
2019-02-21T18:20:13.505Z,96186.50
2019-02-21T18:22:41.941Z,96188.30
2019-02-21T18:25:17.687Z,96183.41
2019-02-21T18:27:46.019Z,96176.88
2019-02-21T18:30:16.569Z,96181.86
2019-02-21T18:32:44.936Z,96174.95
2019-02-21T18:35:14.657Z,96168.42
2019-02-21T18:37:47.348Z,96169.59
2019-02-21T18:40:18.442Z,96163.05
2019-02-21T18:42:46.237Z,96162.02
2019-02-21T18:45:14.655Z,96158.87
2019-02-21T18:47:43.017Z,96156.98
2019-02-21T18:50:13.303Z,96163.26
2019-02-21T18:52:41.726Z,96155.03
2019-02-21T18:55:10.421Z,96149.48
2019-02-21T18:57:39.936Z,96151.97
2019-02-21T19:00:23.756Z,96144.58
2019-02-21T19:02:52.150Z,96138.97
2019-02-21T19:05:21.977Z,96140.52
2019-02-21T19:08:03.392Z,96136.61
2019-02-21T19:10:22.886Z,96142.84
2019-02-21T19:12:51.326Z,96140.20
2019-02-21T19:15:20.746Z,96136.33
2019-02-21T19:17:49.105Z,96137.59
2019-02-21T19:20:21.015Z,96130.42
2019-02-21T19:22:49.486Z,96131.75
2019-02-21T19:25:17.772Z,96129.22
2019-02-21T19:27:46.060Z,96130.48
2019-02-21T19:30:38.496Z,96132.64
2019-02-21T19:33:06.852Z,96122.98
2019-02-21T19:35:35.110Z,96121.34
2019-02-21T19:38:10.290Z,96119.30
2019-02-21T19:40:33.381Z,96119.77
2019-02-21T19:43:01.642Z,96115.59
2019-02-21T19:45:30.028Z,96111.89
2019-02-21T19:47:58.361Z,96112.32
2019-02-21T19:50:27.412Z,96109.00
2019-02-21T19:52:55.696Z,96101.44
2019-02-21T19:55:24.032Z,96089.19
2019-02-21T19:57:52.368Z,96090.52
2019-02-21T20:00:25.974Z,96088.45
2019-02-21T20:02:54.816Z,96084.66
2019-02-21T20:05:23.293Z,96085.13
2019-02-21T20:07:51.715Z,96075.41
2019-02-21T20:10:20.039Z,96076.10
2019-02-21T20:12:48.310Z,96068.03
2019-02-21T20:15:16.574Z,96077.37
2019-02-21T20:17:44.963Z,96072.16
2019-02-21T20:20:16.582Z,96063.70
2019-02-21T20:22:44.937Z,96056.48
2019-02-21T20:25:13.236Z,96055.20
2019-02-21T20:27:41.795Z,96048.45
2019-02-21T20:30:13.620Z,96048.93
2019-02-21T20:32:42.113Z,96042.69
2019-02-21T20:35:10.481Z,96041.70
2019-02-21T20:37:39.025Z,96041.70
2019-02-21T20:40:09.320Z,96043.48
2019-02-21T20:42:37.804Z,96036.34
2019-02-21T20:45:15.550Z,96031.67
2019-02-21T20:47:44.106Z,96032.09
2019-02-21T20:50:12.758Z,96032.94
2019-02-21T20:52:41.274Z,96024.34
2019-02-21T20:55:11.026Z,96028.09
2019-02-21T20:57:41.298Z,96022.14
2019-02-21T21:00:15.518Z,96026.32
2019-02-21T21:02:44.090Z,96023.41
2019-02-21T21:05:12.600Z,96017.02
2019-02-21T21:07:41.217Z,96022.52
2019-02-21T21:10:12.653Z,96012.80
2019-02-21T21:12:41.150Z,96019.52
2019-02-21T21:15:11.772Z,96021.48
2019-02-21T21:17:40.409Z,96016.47
2019-02-21T21:20:16.518Z,96012.28
2019-02-21T21:22:40.929Z,96013.69
2019-02-21T21:25:14.317Z,96009.03
2019-02-21T21:27:42.604Z,96002.33
2019-02-21T21:30:13.102Z,96001.77
2019-02-21T21:32:41.728Z,96003.41
2019-02-21T21:35:09.990Z,95997.44
2019-02-21T21:37:38.297Z,96001.71
2019-02-21T21:40:09.884Z,96005.15
2019-02-21T21:42:38.301Z,95997.53
2019-02-21T21:45:09.905Z,95997.39
2019-02-21T21:47:38.325Z,95996.08
2019-02-21T21:50:09.151Z,95989.27
2019-02-21T21:52:37.432Z,95987.62
2019-02-21T21:55:05.719Z,95983.84
2019-02-21T21:57:34.014Z,95983.83
2019-02-21T22:00:02.328Z,95981.20
2019-02-21T22:02:30.627Z,95979.13
2019-02-21T22:04:58.883Z,95974.92
2019-02-21T22:07:27.132Z,95978.20
2019-02-21T22:09:55.423Z,95976.50
2019-02-21T22:12:23.703Z,95983.20
2019-02-21T22:14:51.968Z,95977.31
2019-02-21T22:17:20.399Z,95978.94
2019-02-21T22:19:48.751Z,95978.95
2019-02-21T22:22:17.141Z,95977.72
2019-02-21T22:24:45.547Z,95978.14
2019-02-21T22:27:13.935Z,95974.62
2019-02-21T22:29:42.307Z,95974.62
2019-02-21T22:32:10.791Z,95972.45
2019-02-21T22:34:39.200Z,95972.36
2019-02-21T22:37:07.459Z,95972.88
2019-02-21T22:39:35.713Z,95970.72
2019-02-21T22:42:03.993Z,95974.52
2019-02-21T22:44:32.331Z,95967.71
2019-02-21T22:47:00.607Z,95972.04
2019-02-21T22:49:28.892Z,95968.24
2019-02-21T22:51:57.181Z,95965.75
2019-02-21T22:54:25.465Z,95962.85
2019-02-21T22:56:53.743Z,95963.38
2019-02-21T22:59:21.993Z,95960.42
2019-02-21T23:01:50.354Z,95966.70
2019-02-21T23:04:21.705Z,95962.48
2019-02-21T23:06:55.783Z,95954.89
2019-02-21T23:09:27.901Z,95953.25
2019-02-21T23:11:54.855Z,95949.83
2019-02-21T23:14:23.105Z,95951.04
2019-02-21T23:16:51.358Z,95957.78
2019-02-21T23:19:19.747Z,95951.94
2019-02-21T23:21:48.011Z,95952.34
2019-02-21T23:24:16.263Z,95959.01
2019-02-21T23:26:44.545Z,95953.57
2019-02-21T23:29:12.819Z,95951.04
2019-02-21T23:31:41.071Z,95952.63
2019-02-21T23:34:10.986Z,95944.70
2019-02-21T23:36:39.264Z,95944.66
2019-02-21T23:39:07.523Z,95941.76
2019-02-21T23:41:35.812Z,95943.06
2019-02-21T23:44:04.072Z,95942.33
2019-02-21T23:46:32.377Z,95940.63
2019-02-21T23:49:00.625Z,95935.48
2019-02-21T23:51:28.897Z,95935.94
2019-02-21T23:54:03.166Z,95938.95
2019-02-21T23:56:27.198Z,95937.34
2019-02-21T23:58:55.448Z,95933.55
